Time;durP1;ratioP1;P1;durP2;ratioP2;P2;SDS_P1;SDS_P2;PMS_P1;PMS_P2;Temp;Humidity;BMP_temperature;BMP_pressure;BME280_temperature;BME280_humidity;BME280_pressure;Samples;Min_cycle;Max_cycle;Signal;HPM_P1;HPM_P2
2022/04/29 00:02:13;;;;;;;;;31.75;22.75;;;;;16.38;41.92;102043.94;5027557;28;45656;-52
2022/04/29 00:04:39;;;;;;;;;25.25;23.00;;;;;16.36;41.20;102042.22;5032697;28;70221;-54
2022/04/29 00:07:06;;;;;;;;;27.00;21.50;;;;;16.33;41.58;102044.06;5033670;28;45433;-53
2022/04/29 00:09:32;;;;;;;;;24.75;22.25;;;;;16.31;41.99;102039.75;5050293;28;45501;-54
2022/04/29 00:11:59;;;;;;;;;29.75;24.00;;;;;16.30;41.63;102041.50;5033971;28;45312;-54
2022/04/29 00:14:24;;;;;;;;;29.00;23.00;;;;;16.28;41.94;102043.31;5032524;28;46366;-53
2022/04/29 00:16:50;;;;;;;;;31.75;25.00;;;;;16.25;41.53;102035.47;5027886;28;45261;-53
2022/04/29 00:19:16;;;;;;;;;27.00;23.00;;;;;16.20;41.43;102033.91;5037725;28;60884;-51
2022/04/29 00:21:41;;;;;;;;;30.25;26.75;;;;;16.11;41.77;102028.00;5026730;28;45348;-51
2022/04/29 00:24:10;;;;;;;;;26.75;24.50;;;;;16.06;41.92;102016.69;5033396;28;46257;-52
2022/04/29 00:26:37;;;;;;;;;25.25;21.50;;;;;16.02;42.19;102024.75;5038562;28;45440;-52
2022/04/29 00:29:03;;;;;;;;;33.25;27.00;;;;;15.99;42.18;102019.53;5034350;28;45427;-51
2022/04/29 00:31:28;;;;;;;;;28.50;22.75;;;;;15.99;42.53;102014.28;5038498;28;45598;-52
2022/04/29 00:33:54;;;;;;;;;35.25;29.25;;;;;15.98;42.00;102012.56;5036562;28;45884;-52
2022/04/29 00:36:19;;;;;;;;;27.00;24.75;;;;;15.95;42.45;102010.84;5036592;28;45376;-53
2022/04/29 00:38:45;;;;;;;;;28.75;26.25;;;;;15.93;42.99;102005.63;5037028;28;45475;-53
2022/04/29 00:41:15;;;;;;;;;34.00;27.50;;;;;15.91;42.64;102009.22;5035395;28;62680;-51
2022/04/29 00:43:40;;;;;;;;;34.25;27.75;;;;;15.88;42.78;102002.28;5012690;28;46344;-52
2022/04/29 00:46:08;;;;;;;;;31.00;27.00;;;;;15.87;42.36;101999.66;5036118;28;67822;-54
2022/04/29 00:48:33;;;;;;;;;28.25;26.25;;;;;15.83;43.23;102001.53;5038062;28;45493;-53
2022/04/29 00:50:58;;;;;;;;;33.00;26.75;;;;;15.82;43.17;101994.50;5031824;28;65223;-52
2022/04/29 00:53:24;;;;;;;;;37.50;27.25;;;;;15.78;43.02;101990.25;5030914;28;68527;-52
2022/04/29 00:55:49;;;;;;;;;29.50;26.75;;;;;15.78;43.04;101989.38;5024118;28;63794;-50
2022/04/29 00:58:31;;;;;;;;;29.00;25.00;;;;;15.72;43.03;101995.66;5027186;28;60700;-53
2022/04/29 01:00:56;;;;;;;;;33.75;24.75;;;;;15.67;43.11;101989.63;5023392;28;45821;-53
2022/04/29 01:03:21;;;;;;;;;31.50;29.75;;;;;15.65;43.28;101988.81;5032407;28;68960;-52
2022/04/29 01:05:48;;;;;;;;;31.25;26.25;;;;;15.61;43.69;101997.72;5015289;28;67537;-53
2022/04/29 01:08:13;;;;;;;;;33.75;24.25;;;;;15.59;42.86;101991.63;5031415;28;45382;-51
2022/04/29 01:10:39;;;;;;;;;39.25;31.25;;;;;15.55;43.68;101986.44;5039259;28;45300;-52
2022/04/29 01:13:04;;;;;;;;;32.00;28.50;;;;;15.53;43.99;101990.91;5035799;28;68855;-53
2022/04/29 01:15:30;;;;;;;;;38.75;27.75;;;;;15.51;43.69;101982.16;5037446;28;45335;-53
2022/04/29 01:17:58;;;;;;;;;32.75;25.50;;;;;15.47;43.35;101983.13;5037339;28;45289;-54
2022/04/29 01:20:28;;;;;;;;;40.50;30.25;;;;;15.43;43.59;101985.91;5037392;28;45619;-53
2022/04/29 01:22:55;;;;;;;;;33.50;29.75;;;;;15.37;43.57;101979.03;5035615;28;46821;-54
2022/04/29 01:25:20;;;;;;;;;37.75;30.25;;;;;15.34;43.95;101981.75;5033014;28;45889;-54
2022/04/29 01:27:46;;;;;;;;;31.75;27.25;;;;;15.29;43.98;101976.59;5036082;28;45839;-54
2022/04/29 01:30:12;;;;;;;;;33.00;27.25;;;;;15.27;43.80;101974.91;5039900;28;64000;-52
2022/04/29 01:32:39;;;;;;;;;34.00;27.75;;;;;15.24;43.84;101962.66;5034537;28;45519;-53
2022/04/29 01:35:06;;;;;;;;;34.00;27.25;;;;;15.20;44.12;101966.28;5039466;28;45395;-53
2022/04/29 01:37:31;;;;;;;;;34.00;27.50;;;;;15.16;44.07;101969.94;5038813;28;45430;-53
2022/04/29 01:39:57;;;;;;;;;35.75;27.75;;;;;15.12;43.68;101968.25;5034092;28;61427;-50
2022/04/29 01:42:22;;;;;;;;;36.75;29.50;;;;;15.05;43.91;101975.47;5035578;28;46294;-52
2022/04/29 01:44:47;;;;;;;;;39.50;27.75;;;;;15.01;44.55;101971.16;5035670;28;62971;-53
2022/04/29 01:47:13;;;;;;;;;35.50;26.00;;;;;14.99;44.87;101976.47;5029363;28;45505;-53
2022/04/29 01:49:38;;;;;;;;;38.00;30.50;;;;;14.99;44.74;101973.84;5035076;28;67714;-51
2022/04/29 01:52:04;;;;;;;;;33.25;28.50;;;;;14.96;45.00;101973.06;5038280;28;55213;-52
2022/04/29 01:54:29;;;;;;;;;35.00;29.00;;;;;14.92;44.80;101969.63;5038909;28;45272;-50
2022/04/29 01:56:55;;;;;;;;;37.00;30.00;;;;;14.90;44.72;101971.44;5039950;28;59885;-53
2022/04/29 01:59:20;;;;;;;;;32.25;27.50;;;;;14.87;45.27;101968.88;5030626;28;47906;-53
2022/04/29 02:01:49;;;;;;;;;33.25;25.25;;;;;14.83;44.92;101964.59;5037829;28;45965;-50
2022/04/29 02:04:15;;;;;;;;;30.75;28.00;;;;;14.83;44.72;101974.28;5032141;28;46010;-53
2022/04/29 02:06:40;;;;;;;;;34.50;30.75;;;;;14.79;44.82;101966.44;5031544;28;45364;-53
2022/04/29 02:09:06;;;;;;;;;37.25;28.25;;;;;14.75;44.39;101974.44;5034388;28;45489;-53
2022/04/29 02:11:31;;;;;;;;;28.25;24.00;;;;;14.74;45.25;101981.50;5032815;28;54195;-51
2022/04/29 02:13:57;;;;;;;;;33.25;30.75;;;;;14.74;45.42;101986.78;5032642;28;45406;-53
2022/04/29 02:16:22;;;;;;;;;34.25;31.00;;;;;14.71;44.57;101988.63;5031596;28;61992;-53
2022/04/29 02:18:47;;;;;;;;;39.25;29.50;;;;;14.67;45.24;101992.25;5031749;28;45346;-53
2022/04/29 02:21:13;;;;;;;;;34.75;28.75;;;;;14.63;45.43;101993.22;5035566;28;55003;-52
2022/04/29 02:23:38;;;;;;;;;37.50;30.00;;;;;14.65;44.60;101992.28;5028406;28;45481;-52
2022/04/29 02:26:04;;;;;;;;;31.75;27.50;;;;;14.63;44.94;101987.94;5038500;28;45608;-52
2022/04/29 02:28:31;;;;;;;;;35.25;30.00;;;;;14.58;45.32;101982.78;5032068;28;45269;-51
2022/04/29 02:30:56;;;;;;;;;35.00;28.75;;;;;14.56;45.64;101981.94;5037062;28;46082;-52
2022/04/29 02:33:22;;;;;;;;;38.50;30.50;;;;;14.56;45.12;101988.06;5034419;28;45366;-51
2022/04/29 02:35:47;;;;;;;;;37.00;30.25;;;;;14.55;45.36;101994.22;5040681;28;45393;-50
2022/04/29 02:38:13;;;;;;;;;43.50;31.75;;;;;14.56;45.31;101995.09;5035638;28;63279;-52
2022/04/29 02:40:38;;;;;;;;;34.00;23.50;;;;;14.56;45.36;101993.31;5038719;28;45981;-53
2022/04/29 02:43:03;;;;;;;;;31.25;30.00;;;;;14.56;44.74;101985.41;5030379;28;67136;-52
2022/04/29 02:45:29;;;;;;;;;42.00;28.50;;;;;14.56;44.74;101992.47;5039610;28;58689;-51
2022/04/29 02:47:54;;;;;;;;;37.00;29.75;;;;;14.55;45.12;101994.22;5033187;28;65568;-51
2022/04/29 02:50:19;;;;;;;;;33.75;28.25;;;;;14.53;45.21;101992.53;5033374;28;62977;-49
2022/04/29 02:52:45;;;;;;;;;41.50;28.25;;;;;14.53;45.13;101996.03;5034409;28;64299;-50
2022/04/29 02:55:10;;;;;;;;;40.00;31.25;;;;;14.52;45.46;101991.66;5039743;28;61554;-49
2022/04/29 02:57:36;;;;;;;;;34.25;28.00;;;;;14.52;45.53;101985.50;5036197;28;45442;-51
2022/04/29 03:00:01;;;;;;;;;30.75;25.00;;;;;14.52;45.27;101993.41;5052933;28;46838;-52
2022/04/29 03:02:27;;;;;;;;;39.00;26.25;;;;;14.49;45.34;101983.84;5035994;28;59001;-52
2022/04/29 03:04:52;;;;;;;;;35.50;28.25;;;;;14.43;45.27;101984.00;5033851;28;45238;-50
2022/04/29 03:07:17;;;;;;;;;40.25;30.00;;;;;14.40;45.22;101982.28;5036767;28;62527;-51
2022/04/29 03:09:43;;;;;;;;;29.25;25.25;;;;;14.37;45.17;101979.69;5034252;28;69680;-53
2022/04/29 03:12:13;;;;;;;;;35.25;25.00;;;;;14.35;45.95;101983.28;5035884;28;68220;-51
2022/04/29 03:14:39;;;;;;;;;36.50;26.50;;;;;14.33;45.83;101985.94;5035701;28;45471;-51
2022/04/29 03:17:04;;;;;;;;;35.75;28.25;;;;;14.31;45.75;101985.13;5031443;28;45351;-51
2022/04/29 03:19:30;;;;;;;;;32.00;27.25;;;;;14.30;45.84;101988.66;5034670;28;46248;-50
2022/04/29 03:21:55;;;;;;;;;40.25;31.25;;;;;14.31;45.98;101982.50;5037160;28;45348;-53
2022/04/29 03:24:21;;;;;;;;;41.00;31.00;;;;;14.34;45.88;101985.06;5033388;28;45448;-52
2022/04/29 03:26:46;;;;;;;;;36.00;28.50;;;;;14.34;45.96;101982.44;5038225;28;45189;-51
2022/04/29 03:29:12;;;;;;;;;39.00;28.00;;;;;14.34;46.13;101982.44;5030199;28;68659;-50
2022/04/29 03:31:37;;;;;;;;;41.25;29.50;;;;;14.33;45.37;101983.31;5038412;28;45305;-50
2022/04/29 03:34:02;;;;;;;;;32.75;27.50;;;;;14.30;45.89;101977.25;5028159;28;60470;-50
2022/04/29 03:36:28;;;;;;;;;37.50;29.75;;;;;14.27;45.52;101977.31;5036748;28;62840;-51
2022/04/29 03:38:53;;;;;;;;;26.50;24.50;;;;;14.25;45.91;101974.72;5033484;28;48082;-52
2022/04/29 03:41:19;;;;;;;;;36.75;29.00;;;;;14.24;46.24;101971.22;5034949;28;60036;-52
2022/04/29 03:43:45;;;;;;;;;32.25;28.25;;;;;14.26;46.04;101965.06;5033672;28;45279;-53
2022/04/29 03:46:10;;;;;;;;;34.50;30.50;;;;;14.27;46.17;101959.78;5037815;28;45420;-51
2022/04/29 03:51:20;;;;;;;;;43.50;31.75;;;;;14.25;45.71;101948.38;5036388;28;45306;-52
2022/04/29 03:53:47;;;;;;;;;34.00;26.25;;;;;14.27;46.10;101959.78;5026533;28;45293;-50
2022/04/29 03:56:12;;;;;;;;;35.50;30.00;;;;;14.26;45.73;101947.50;5028818;28;45387;-50
2022/04/29 03:58:37;;;;;;;;;38.25;31.25;;;;;14.24;45.41;101946.66;5026679;28;46813;-53
2022/04/29 04:01:03;;;;;;;;;36.75;25.75;;;;;14.23;46.17;101942.28;5031488;28;62450;-53
2022/04/29 04:03:28;;;;;;;;;36.00;27.50;;;;;14.21;46.17;101939.69;5027645;28;62527;-53
2022/04/29 04:08:38;;;;;;;;;37.75;26.75;;;;;14.20;46.07;101942.34;5034595;28;45395;-53
2022/04/29 04:11:03;;;;;;;;;40.75;28.25;;;;;14.18;46.04;101950.31;5037486;28;45402;-51
2022/04/29 04:13:29;;;;;;;;;32.75;27.00;;;;;14.14;45.60;101946.00;5037606;28;45304;-52
2022/04/29 04:15:54;;;;;;;;;34.50;28.25;;;;;14.12;46.59;101939.91;5036768;28;65627;-51
2022/04/29 04:18:20;;;;;;;;;36.00;27.75;;;;;14.11;46.05;101942.56;5032102;28;66434;-52
2022/04/29 04:20:48;;;;;;;;;37.75;31.25;;;;;14.10;46.16;101940.84;5027924;28;60968;-50
2022/04/29 04:23:14;;;;;;;;;33.75;28.00;;;;;14.08;45.94;101951.41;5026403;28;45336;-51
2022/04/29 04:25:39;;;;;;;;;32.25;28.25;;;;;14.05;46.34;101944.44;5036684;28;45349;-52
2022/04/29 04:28:05;;;;;;;;;39.50;30.00;;;;;14.08;45.99;101942.63;5029611;28;70219;-53
2022/04/29 04:30:30;;;;;;;;;34.00;30.00;;;;;14.07;46.37;101938.28;5038789;28;45308;-53
2022/04/29 04:32:56;;;;;;;;;36.75;30.75;;;;;14.04;46.00;101940.09;5035657;28;64075;-53
2022/04/29 04:35:21;;;;;;;;;34.50;29.00;;;;;14.03;46.01;101943.59;5029733;28;63683;-51
2022/04/29 04:37:47;;;;;;;;;36.50;27.00;;;;;13.99;46.37;101946.34;5029571;28;67376;-54
2022/04/29 04:40:12;;;;;;;;;35.00;29.75;;;;;13.96;46.45;101947.28;5031980;28;45300;-50
2022/04/29 04:42:44;;;;;;;;;38.00;30.00;;;;;13.96;46.46;101949.03;5031714;28;45830;-49
2022/04/29 04:45:10;;;;;;;;;30.00;28.25;;;;;13.97;46.46;101953.41;5031273;28;45462;-52
2022/04/29 04:47:35;;;;;;;;;35.25;30.00;;;;;13.99;46.62;101959.50;5032406;28;48358;-49
2022/04/29 04:50:01;;;;;;;;;32.50;26.25;;;;;13.97;46.52;101949.03;5037744;28;66715;-51
2022/04/29 04:52:26;;;;;;;;;37.75;30.75;;;;;13.98;46.20;101949.88;5035249;28;45284;-51
2022/04/29 04:54:51;;;;;;;;;35.50;29.25;;;;;13.97;46.04;101956.91;5029163;28;65162;-51
2022/04/29 04:57:17;;;;;;;;;32.25;29.25;;;;;13.95;46.26;101957.81;5031033;28;69383;-50
2022/04/29 04:59:42;;;;;;;;;35.50;28.00;;;;;13.93;46.28;101959.63;5034182;28;45355;-52
2022/04/29 05:02:07;;;;;;;;;38.00;27.75;;;;;13.92;46.28;101958.78;5035266;28;54601;-51
2022/04/29 05:04:33;;;;;;;;;36.50;26.75;;;;;13.94;46.57;101961.38;5033541;28;45368;-52
2022/04/29 05:06:58;;;;;;;;;32.00;28.25;;;;;13.95;46.19;101963.09;5031363;28;68494;-52
2022/04/29 05:09:24;;;;;;;;;41.00;29.00;;;;;13.94;46.19;101961.38;5033105;28;45339;-51
2022/04/29 05:11:49;;;;;;;;;38.25;29.25;;;;;13.94;46.62;101962.22;5035437;28;45447;-51
2022/04/29 05:14:15;;;;;;;;;36.75;27.50;;;;;13.96;46.01;101959.56;5034484;28;45411;-50
2022/04/29 05:16:40;;;;;;;;;38.50;31.00;;;;;13.94;45.77;101970.13;5031826;28;46100;-49
2022/04/29 05:19:05;;;;;;;;;35.75;29.00;;;;;13.93;46.22;101962.25;5034683;28;63449;-51
2022/04/29 05:21:31;;;;;;;;;37.25;27.25;;;;;13.93;46.36;101970.16;5025663;28;45409;-53
2022/04/29 05:23:56;;;;;;;;;33.50;26.25;;;;;13.93;46.12;101964.91;5024934;28;64337;-52
2022/04/29 05:26:22;;;;;;;;;37.00;29.50;;;;;13.94;46.42;101974.53;5024067;28;46047;-49
2022/04/29 05:28:47;;;;;;;;;42.25;33.50;;;;;13.96;46.57;101970.97;5026295;28;65105;-50
2022/04/29 05:31:13;;;;;;;;;30.75;23.00;;;;;13.97;46.17;101967.44;5034836;28;45324;-50
2022/04/29 05:33:38;;;;;;;;;37.75;27.50;;;;;13.98;46.34;101966.53;5029672;28;61911;-50
2022/04/29 05:36:04;;;;;;;;;36.25;28.25;;;;;14.00;46.61;101971.75;5030099;28;46402;-49
2022/04/29 05:43:58;;;;;;;;;45.00;30.75;;;;;13.98;45.87;101984.94;5034401;28;45303;-50
2022/04/29 05:46:23;;;;;;;;;32.75;29.00;;;;;13.95;46.29;101989.41;5041533;28;59039;-52
2022/04/29 05:48:49;;;;;;;;;31.50;24.75;;;;;13.93;46.31;101988.56;5032923;28;45397;-50
2022/04/29 05:51:14;;;;;;;;;35.25;28.00;;;;;13.93;45.91;101989.44;5041218;28;61346;-53
2022/04/29 05:53:39;;;;;;;;;35.50;27.75;;;;;13.92;46.28;101985.09;5034637;28;68604;-53
2022/04/29 05:56:05;;;;;;;;;37.00;28.25;;;;;13.91;46.60;101985.97;5028119;28;70205;-48
2022/04/29 05:58:30;;;;;;;;;37.75;29.25;;;;;13.90;46.14;101989.53;5030423;28;69596;-49
2022/04/29 06:00:58;;;;;;;;;37.00;26.00;;;;;13.91;46.80;101996.50;5028895;28;59552;-48
2022/04/29 06:03:23;;;;;;;;;31.25;25.50;;;;;13.93;46.15;101999.97;5032615;28;45376;-49
2022/04/29 06:05:49;;;;;;;;;38.50;29.25;;;;;13.94;46.03;101999.06;5041420;28;46332;-51
2022/04/29 06:08:14;;;;;;;;;34.75;28.50;;;;;13.97;46.50;102006.03;5035262;28;66895;-48
2022/04/29 06:10:39;;;;;;;;;31.75;25.75;;;;;13.95;46.35;102006.09;5040822;28;45375;-51
2022/04/29 06:13:05;;;;;;;;;33.75;26.00;;;;;13.95;46.20;102008.72;5037280;28;45336;-52
2022/04/29 06:15:31;;;;;;;;;36.00;29.75;;;;;13.95;46.30;102006.09;5032409;28;46967;-51
2022/04/29 06:17:56;;;;;;;;;36.50;31.00;;;;;13.96;46.04;102009.56;5027781;28;52649;-52
2022/04/29 06:20:21;;;;;;;;;30.00;27.25;;;;;13.96;46.15;102013.06;5033431;28;63511;-49
2022/04/29 06:22:47;;;;;;;;;36.00;28.50;;;;;14.00;46.55;102016.50;5033545;28;68133;-52
2022/04/29 06:25:12;;;;;;;;;28.75;22.75;;;;;14.04;46.53;102023.41;5036690;28;46076;-53
2022/04/29 06:27:38;;;;;;;;;41.25;30.50;;;;;14.06;46.26;102013.75;5037010;28;45367;-54
2022/04/29 06:30:04;;;;;;;;;36.75;27.25;;;;;14.08;46.76;102009.31;5030517;28;45467;-51
2022/04/29 06:32:29;;;;;;;;;36.75;29.75;;;;;14.12;46.68;102013.59;5024702;28;45223;-53
2022/04/29 06:34:54;;;;;;;;;37.75;29.25;;;;;14.17;46.40;102024.06;5031187;28;52780;-50
2022/04/29 06:37:21;;;;;;;;;37.75;28.75;;;;;14.20;45.96;102018.69;5026905;28;47451;-50
2022/04/29 06:39:46;;;;;;;;;40.00;28.75;;;;;14.17;46.38;102034.59;5034198;28;45598;-53
2022/04/29 06:42:12;;;;;;;;;40.50;28.25;;;;;14.15;46.21;102031.13;5028785;28;45535;-50
2022/04/29 06:44:37;;;;;;;;;33.25;29.25;;;;;14.13;46.24;102027.63;5036797;28;65419;-47
2022/04/29 06:47:03;;;;;;;;;37.75;28.50;;;;;14.13;46.55;102025.00;5034632;28;45613;-49
2022/04/29 06:49:29;;;;;;;;;35.25;31.25;;;;;14.11;46.49;102022.44;5030450;28;45534;-48
2022/04/29 06:51:55;;;;;;;;;33.50;27.00;;;;;14.12;46.39;102020.66;5033274;28;45352;-48
2022/04/29 06:54:20;;;;;;;;;33.00;26.75;;;;;14.13;46.41;102017.09;5033481;28;45405;-50
2022/04/29 06:56:45;;;;;;;;;35.25;29.00;;;;;14.14;46.64;102022.34;5031748;28;65247;-48
2022/04/29 06:59:11;;;;;;;;;37.75;28.50;;;;;14.19;46.56;102024.88;5033899;28;45375;-49
2022/04/29 07:01:36;;;;;;;;;26.00;23.00;;;;;14.22;46.49;102020.41;5048885;28;45370;-48
2022/04/29 07:04:02;;;;;;;;;36.50;29.50;;;;;14.26;46.46;102018.59;5030992;28;68012;-50
2022/04/29 07:06:27;;;;;;;;;47.50;33.00;;;;;14.28;46.43;102016.78;5032751;28;45284;-50
2022/04/29 07:08:53;;;;;;;;;35.75;31.50;;;;;14.31;46.68;102026.41;5026691;28;45350;-50
2022/04/29 07:11:18;;;;;;;;;39.25;32.25;;;;;14.31;46.42;102032.53;5032363;28;45406;-47
2022/04/29 07:13:43;;;;;;;;;29.75;27.50;;;;;14.32;46.45;102028.13;5029695;28;69286;-50
2022/04/29 07:16:09;;;;;;;;;39.75;31.25;;;;;14.31;46.34;102034.31;5029088;28;46828;-49
2022/04/29 07:18:36;;;;;;;;;43.50;31.25;;;;;14.28;46.46;102037.84;5030846;28;45346;-51
2022/04/29 07:21:02;;;;;;;;;38.00;28.25;;;;;14.27;46.37;102051.94;5039695;28;45351;-51
2022/04/29 07:23:27;;;;;;;;;38.25;31.50;;;;;14.19;46.37;102041.53;5030068;28;45393;-49
2022/04/29 07:25:53;;;;;;;;;34.25;30.75;;;;;14.15;47.00;102034.63;5030355;28;50465;-51
2022/04/29 07:28:18;;;;;;;;;34.50;28.75;;;;;14.16;47.25;102032.84;5026469;28;46142;-49
2022/04/29 07:30:44;;;;;;;;;46.00;32.50;;;;;14.15;46.92;102031.13;5034709;28;45510;-49
2022/04/29 07:33:09;;;;;;;;;39.50;31.25;;;;;14.15;46.80;102034.63;5027278;28;45936;-51
2022/04/29 07:43:46;;;;;;;;;47.50;34.00;;;;;14.26;47.35;102049.31;5034323;28;45434;-49
2022/04/29 07:46:12;;;;;;;;;43.00;31.50;;;;;14.30;46.95;102041.31;5026287;28;45523;-49
2022/04/29 07:48:38;;;;;;;;;41.25;34.00;;;;;14.32;46.67;102042.13;5030171;28;45518;-49
2022/04/29 07:51:03;;;;;;;;;42.75;32.50;;;;;14.36;47.35;102035.03;5037865;28;45292;-51
2022/04/29 07:53:28;;;;;;;;;46.50;37.00;;;;;14.39;46.74;102042.88;5029282;28;68022;-49
2022/04/29 07:55:54;;;;;;;;;52.50;38.50;;;;;14.41;47.19;102044.59;5032598;28;45482;-49
2022/04/29 07:58:19;;;;;;;;;48.25;35.50;;;;;14.47;47.68;102054.13;5030272;28;46206;-49
2022/04/29 08:00:45;;;;;;;;;44.25;34.50;;;;;14.53;47.54;102053.13;5033980;28;45714;-49
2022/04/29 08:03:10;;;;;;;;;52.25;37.00;;;;;14.57;47.23;102053.03;5031578;28;70206;-51
2022/04/29 08:05:36;;;;;;;;;51.75;39.75;;;;;14.56;47.58;102048.63;5036206;28;45460;-49
2022/04/29 08:08:01;;;;;;;;;47.75;36.50;;;;;14.56;47.82;102048.63;5027959;28;61175;-48
2022/04/29 08:10:28;;;;;;;;;46.00;36.50;;;;;14.62;47.33;102050.28;5031981;28;45424;-52
2022/04/29 08:12:53;;;;;;;;;48.75;38.25;;;;;14.66;47.16;102051.97;5030876;28;47008;-52
2022/04/29 08:15:19;;;;;;;;;47.75;36.00;;;;;14.71;47.73;102047.44;5035233;28;66467;-49
2022/04/29 08:17:45;;;;;;;;;46.75;34.50;;;;;14.79;47.23;102055.19;5031528;28;45415;-52
2022/04/29 08:20:11;;;;;;;;;52.00;34.75;;;;;14.87;47.22;102047.94;5035799;28;45599;-52
2022/04/29 08:22:36;;;;;;;;;48.25;37.00;;;;;14.97;47.21;102054.75;5034626;28;47608;-50
2022/04/29 08:25:03;;;;;;;;;48.50;37.25;;;;;15.03;47.09;102056.34;5035541;28;45430;-51
2022/04/29 08:27:28;;;;;;;;;53.25;39.75;;;;;15.08;47.29;102056.25;5033021;28;45478;-50
2022/04/29 08:29:56;;;;;;;;;45.00;36.25;;;;;15.12;47.24;102056.16;5037269;28;45331;-50
2022/04/29 08:32:21;;;;;;;;;45.25;36.25;;;;;15.21;46.92;102059.44;5033866;28;46249;-49
2022/04/29 08:34:47;;;;;;;;;47.25;35.50;;;;;15.31;46.45;102058.31;5031075;28;45352;-52
2022/04/29 08:37:12;;;;;;;;;47.75;36.00;;;;;15.34;46.56;102056.47;5028626;28;45464;-47
2022/04/29 08:39:37;;;;;;;;;46.00;38.75;;;;;15.43;46.45;102058.00;5026061;28;67449;-49
2022/04/29 08:42:03;;;;;;;;;49.00;35.75;;;;;15.51;46.00;102056.03;5036761;28;45498;-48
2022/04/29 08:44:30;;;;;;;;;50.75;39.00;;;;;15.61;46.59;102055.78;5037752;28;45432;-51
2022/04/29 08:46:56;;;;;;;;;51.50;38.00;;;;;15.64;46.16;102058.34;5025000;28;45289;-51
2022/04/29 08:49:22;;;;;;;;;48.25;35.75;;;;;15.71;46.24;102052.84;5027672;28;46818;-51
2022/04/29 08:51:48;;;;;;;;;51.75;39.00;;;;;15.85;45.96;102057.78;5032248;28;45699;-53
2022/04/29 08:58:36;;;;;;;;;50.00;37.50;;;;;16.01;45.73;102066.13;5030513;28;45668;-51
2022/04/29 08:59:45;;;;;;;;;47.00;36.00;;;;;16.43;45.38;102056.97;5018506;28;45610;-50
2022/04/29 09:02:10;;;;;;;;;46.75;37.00;;;;;16.65;44.86;102057.19;5030251;28;46094;-49
2022/04/29 09:04:36;;;;;;;;;50.50;39.00;;;;;16.88;44.56;102053.88;5028243;28;48638;-51
2022/04/29 09:07:01;;;;;;;;;48.00;37.50;;;;;17.01;44.61;102052.53;5027508;28;46107;-51
2022/04/29 09:09:27;;;;;;;;;46.25;35.00;;;;;17.04;44.60;102047.16;5035991;28;45765;-49
2022/04/29 09:12:12;;;;;;;;;52.00;37.00;;;;;17.12;44.47;102054.81;5028941;28;56451;-48
2022/04/29 09:14:38;;;;;;;;;46.00;37.00;;;;;17.25;44.08;102050.00;5030998;28;45975;-48
2022/04/29 09:17:03;;;;;;;;;52.25;39.25;;;;;17.61;43.80;102049.63;5026180;28;46104;-50
2022/04/29 09:19:32;;;;;;;;;49.50;36.75;;;;;17.74;43.63;102050.94;5028175;28;45507;-48
2022/04/29 09:22:08;;;;;;;;;52.25;39.25;;;;;17.94;43.20;102062.63;5033498;28;48048;-49
2022/04/29 09:24:34;;;;;;;;;49.75;38.00;;;;;18.60;42.72;102057.44;5030641;28;47516;-48
2022/04/29 09:27:02;;;;;;;;;49.00;38.00;;;;;19.44;42.12;102049.59;5028941;28;45706;-51
2022/04/29 09:29:30;;;;;;;;;47.25;35.00;;;;;19.96;41.27;102041.16;5031094;28;45771;-48
2022/04/29 09:31:56;;;;;;;;;50.75;39.50;;;;;20.19;40.51;102042.75;5036395;28;46375;-51
2022/04/29 09:34:22;;;;;;;;;47.00;38.25;;;;;20.12;40.28;102046.63;5032943;28;45881;-48
2022/04/29 09:36:48;;;;;;;;;42.25;35.50;;;;;20.19;40.19;102038.28;5024381;28;46081;-48
2022/04/29 09:39:30;;;;;;;;;51.00;38.00;;;;;20.54;39.62;102037.53;5030166;28;58988;-51
2022/04/29 09:41:59;;;;;;;;;51.00;37.50;;;;;20.81;39.08;102036.22;5029370;28;47062;-48
2022/04/29 09:44:34;;;;;;;;;46.25;34.00;;;;;21.14;38.69;102037.28;5031762;28;45552;-49
2022/04/29 09:47:10;;;;;;;;;44.25;34.25;;;;;21.38;38.37;102032.50;5035609;28;45644;-50
2022/04/29 09:49:35;;;;;;;;;40.50;32.25;;;;;21.57;38.04;102030.63;5031750;28;45463;-50
2022/04/29 09:52:00;;;;;;;;;44.50;34.75;;;;;21.80;37.71;102031.22;5020137;28;68772;-50
2022/04/29 09:54:30;;;;;;;;;36.25;30.25;;;;;21.94;37.69;102028.66;5035307;28;45796;-51
2022/04/29 09:57:11;;;;;;;;;42.75;35.25;;;;;22.18;37.66;102030.91;5038500;28;45340;-48
2022/04/29 09:59:47;;;;;;;;;39.00;30.25;;;;;22.23;36.52;102031.53;5028592;28;46830;-51
2022/04/29 10:02:14;;;;;;;;;46.75;36.00;;;;;22.07;36.90;102030.66;5028360;28;45501;-53
2022/04/29 10:04:41;;;;;;;;;44.50;34.00;;;;;22.07;36.57;102026.19;5026832;28;46870;-51
2022/04/29 10:07:08;;;;;;;;;42.75;34.00;;;;;22.39;36.40;102023.56;5053025;28;45441;-55
2022/04/29 10:09:34;;;;;;;;;47.50;34.00;;;;;22.43;36.35;102026.91;5036386;28;45503;-55
2022/04/29 10:12:04;;;;;;;;;46.00;35.25;;;;;22.45;36.37;102025.00;5024924;28;46299;-56
2022/04/29 10:14:31;;;;;;;;;42.25;33.25;;;;;22.30;36.04;102027.59;5036162;28;45878;-56
2022/04/29 10:22:41;;;;;;;;;38.00;32.75;;;;;21.80;36.51;102025.88;5034045;28;45788;-57
2022/04/29 10:25:07;;;;;;;;;42.25;33.00;;;;;21.69;36.47;102030.91;5023094;28;47235;-55
2022/04/29 10:27:33;;;;;;;;;39.00;30.25;;;;;21.72;36.26;102033.41;5035188;28;45641;-57
2022/04/29 10:29:58;;;;;;;;;38.25;32.00;;;;;21.76;36.15;102033.19;5032057;28;46161;-57
2022/04/29 10:32:24;;;;;;;;;36.00;30.50;;;;;21.76;36.37;102032.31;5012397;28;66296;-57
2022/04/29 10:34:54;;;;;;;;;43.25;32.00;;;;;21.63;36.33;102033.91;5033911;28;66253;-58
2022/04/29 10:37:20;;;;;;;;;42.00;32.75;;;;;21.60;36.23;102025.16;5037335;28;45394;-57
2022/04/29 10:40:06;;;;;;;;;44.00;33.50;;;;;21.59;36.13;102027.88;5021231;28;45718;-58
2022/04/29 10:42:45;;;;;;;;;47.75;34.50;;;;;21.80;36.23;102026.75;5031529;28;45532;-58
2022/04/29 10:45:11;;;;;;;;;44.25;36.50;;;;;23.10;35.39;102030.19;5013684;28;45454;-58
2022/04/29 10:47:40;;;;;;;;;44.75;33.50;;;;;24.52;34.35;102026.75;5015504;28;45437;-57
2022/04/29 10:50:41;;;;;;;;;42.50;33.50;;;;;25.50;32.76;102022.84;5034610;28;45764;-53
2022/04/29 10:53:08;;;;;;;;;49.00;37.00;;;;;25.86;31.84;102013.16;4988098;28;45758;-53
2022/04/29 10:55:33;;;;;;;;;43.25;33.50;;;;;25.98;31.24;102016.81;5001851;28;68443;-54
2022/04/29 10:58:17;;;;;;;;;44.50;32.25;;;;;25.61;31.75;102007.84;5029081;28;45774;-57
2022/04/29 11:01:09;;;;;;;;;42.25;32.75;;;;;24.97;32.04;102013.97;5016435;28;45437;-57
2022/04/29 11:03:43;;;;;;;;;38.50;33.75;;;;;24.47;32.21;102019.03;5027742;28;45491;-55
2022/04/29 11:06:13;;;;;;;;;38.00;32.00;;;;;24.07;32.53;102003.72;5030916;28;45573;-54
2022/04/29 11:08:42;;;;;;;;;43.50;33.25;;;;;23.75;32.81;102012.91;5031184;28;45575;-54
2022/04/29 11:11:08;;;;;;;;;39.50;32.00;;;;;23.42;33.40;102011.34;5032350;28;45490;-53
2022/04/29 11:13:35;;;;;;;;;38.75;33.50;;;;;23.11;33.29;102014.06;5030352;28;45897;-54
2022/04/29 11:16:19;;;;;;;;;42.25;34.25;;;;;22.78;33.53;102013.38;5032298;28;45987;-54
2022/04/29 11:18:45;;;;;;;;;42.25;32.75;;;;;22.59;34.20;102009.06;5036053;28;45454;-53
2022/04/29 11:26:49;;;;;;;;;42.75;32.75;;;;;22.37;34.17;102002.31;5043883;28;45403;-51
2022/04/29 11:29:14;;;;;;;;;37.25;30.50;;;;;22.31;34.35;102004.44;5045985;28;45651;-51
2022/04/29 11:31:40;;;;;;;;;39.75;32.25;;;;;22.25;34.36;102005.63;5035809;28;45354;-53
2022/04/29 11:34:16;;;;;;;;;44.25;33.50;;;;;22.18;34.36;101993.59;5033059;28;47184;-53
2022/04/29 11:36:42;;;;;;;;;37.75;33.00;;;;;22.17;34.38;102005.22;5025385;28;45482;-50
2022/04/29 11:39:15;;;;;;;;;39.25;32.25;;;;;22.07;34.66;101998.66;5031759;28;45559;-52
2022/04/29 11:41:54;;;;;;;;;39.75;33.00;;;;;22.00;34.28;101991.00;5037979;28;45388;-52